createdAt,value
2022-11-05T00:01:44.070Z,10.30
2022-11-05T00:04:31.122Z,7.03
2022-11-05T00:07:30.327Z,8.65
2022-11-05T00:10:01.835Z,7.60
2022-11-05T00:12:47.329Z,10.98
2022-11-05T00:15:33.197Z,7.88
2022-11-05T00:18:01.613Z,13.25
2022-11-05T00:20:28.369Z,11.80
2022-11-05T00:23:19.039Z,7.53
2022-11-05T00:25:54.215Z,8.57
2022-11-05T00:28:21.085Z,10.88
2022-11-05T00:30:47.861Z,14.50
2022-11-05T00:33:16.017Z,9.30
2022-11-05T00:35:43.141Z,12.32
2022-11-05T00:38:09.886Z,9.52
2022-11-05T00:40:36.938Z,8.63
2022-11-05T00:43:22.291Z,6.70
2022-11-05T00:45:49.057Z,6.35
2022-11-05T00:48:35.615Z,10.13
2022-11-05T00:51:05.676Z,7.28
2022-11-05T00:53:32.928Z,6.90
2022-11-05T00:56:00.628Z,8.35
2022-11-05T00:58:29.209Z,7.70
2022-11-05T01:00:57.588Z,8.50
2022-11-05T01:03:27.911Z,5.93
2022-11-05T01:05:56.311Z,9.60
2022-11-05T01:08:24.888Z,8.77
2022-11-05T01:10:53.106Z,7.18
2022-11-05T01:13:22.521Z,6.53
2022-11-05T01:15:50.993Z,5.57
2022-11-05T01:18:18.385Z,12.93
2022-11-05T01:20:46.983Z,5.78
2022-11-05T01:23:14.121Z,6.45
2022-11-05T01:25:41.243Z,13.20
2022-11-05T01:28:09.714Z,6.40
2022-11-05T01:30:38.447Z,11.07
2022-11-05T01:33:05.397Z,7.53
2022-11-05T01:35:32.310Z,4.60
2022-11-05T01:38:00.683Z,6.40
2022-11-05T01:40:27.893Z,5.18
2022-11-05T01:42:54.624Z,8.93
2022-11-05T01:45:23.905Z,6.82
2022-11-05T01:47:57.991Z,6.20
2022-11-05T01:50:36.093Z,5.75
2022-11-05T01:53:13.498Z,5.53
2022-11-05T01:55:43.535Z,6.85
2022-11-05T02:00:41.190Z,6.00
2022-11-05T02:03:09.335Z,9.15
2022-11-05T02:05:36.841Z,6.82
2022-11-05T02:08:03.901Z,7.30
2022-11-05T02:10:33.237Z,5.93
2022-11-05T02:13:00.033Z,13.43
2022-11-05T02:15:38.695Z,7.75
2022-11-05T02:18:16.919Z,16.15
2022-11-05T02:20:53.055Z,6.75
2022-11-05T02:23:47.503Z,7.60
2022-11-05T02:26:50.193Z,5.22
2022-11-05T02:29:47.354Z,8.32
2022-11-05T02:32:24.078Z,7.00
2022-11-05T02:34:56.654Z,8.10
2022-11-05T02:37:37.148Z,9.02
2022-11-05T02:40:11.205Z,7.70
2022-11-05T02:42:44.453Z,6.60
2022-11-05T02:45:22.517Z,8.75
2022-11-05T02:47:56.794Z,10.48
2022-11-05T02:50:30.140Z,6.15
2022-11-05T02:53:01.103Z,7.28
2022-11-05T02:55:33.917Z,10.00
2022-11-05T02:58:03.501Z,6.78
2022-11-05T03:00:43.653Z,5.45
2022-11-05T03:03:16.977Z,8.73
2022-11-05T03:05:56.007Z,7.20
2022-11-05T03:08:36.045Z,4.30
2022-11-05T03:11:12.790Z,5.00
2022-11-05T03:13:48.570Z,7.63
2022-11-05T03:16:19.465Z,6.25
2022-11-05T03:18:54.742Z,7.00
2022-11-05T03:21:27.004Z,5.03
2022-11-05T03:23:58.036Z,7.03
2022-11-05T03:26:29.609Z,7.60
2022-11-05T03:29:06.565Z,6.68
2022-11-05T03:31:35.396Z,6.00
2022-11-05T03:34:06.164Z,6.25
2022-11-05T03:36:39.659Z,7.68
2022-11-05T03:39:08.982Z,7.20
2022-11-05T03:41:43.236Z,8.65
2022-11-05T03:44:13.109Z,7.45
2022-11-05T03:46:45.538Z,7.03
2022-11-05T03:49:19.338Z,7.22
2022-11-05T03:51:52.714Z,7.90
2022-11-05T03:54:19.586Z,7.05
2022-11-05T03:56:57.263Z,7.53
2022-11-05T03:59:24.362Z,5.30
2022-11-05T04:01:51.236Z,7.38
2022-11-05T04:04:19.646Z,6.10
2022-11-05T04:07:24.684Z,4.90
2022-11-05T04:10:10.137Z,10.55
2022-11-05T04:12:55.653Z,6.97
2022-11-05T04:15:22.456Z,9.23
2022-11-05T04:17:49.272Z,9.98
2022-11-05T04:20:36.347Z,6.72
2022-11-05T04:23:24.596Z,5.93
2022-11-05T04:25:51.788Z,8.20
2022-11-05T04:28:19.394Z,6.45
2022-11-05T04:30:46.181Z,7.53
2022-11-05T04:33:15.143Z,7.72
2022-11-05T04:35:45.522Z,9.70
2022-11-05T04:38:14.915Z,8.55
2022-11-05T04:40:42.255Z,8.75
2022-11-05T04:43:15.043Z,7.22
2022-11-05T04:45:42.830Z,7.43
2022-11-05T04:48:09.669Z,7.03
2022-11-05T04:50:36.929Z,7.60
2022-11-05T04:53:05.099Z,5.90
2022-11-05T04:55:31.881Z,5.95
2022-11-05T04:57:58.731Z,5.35
2022-11-05T05:00:25.560Z,6.00
2022-11-05T05:02:52.351Z,5.70
2022-11-05T05:05:19.121Z,5.80
2022-11-05T05:07:45.864Z,13.02
2022-11-05T05:10:14.109Z,9.82
2022-11-05T05:12:40.902Z,6.80
2022-11-05T05:15:08.501Z,7.55
2022-11-05T05:17:35.313Z,7.93
2022-11-05T05:20:20.668Z,7.07
2022-11-05T05:22:52.047Z,9.05
2022-11-05T05:25:20.687Z,6.32
2022-11-05T05:27:47.566Z,9.07
2022-11-05T05:30:14.312Z,8.15
2022-11-05T05:32:43.938Z,8.98
2022-11-05T05:35:10.723Z,9.82
2022-11-05T05:37:37.509Z,6.78
2022-11-05T05:40:04.917Z,9.02
2022-11-05T05:42:35.393Z,8.15
2022-11-05T05:45:06.661Z,10.02
2022-11-05T05:47:33.368Z,11.52
2022-11-05T05:50:00.175Z,12.00
2022-11-05T05:52:26.929Z,14.45
2022-11-05T05:54:53.646Z,14.10
2022-11-05T05:57:20.423Z,10.23
2022-11-05T05:59:48.691Z,14.52
2022-11-05T06:02:16.033Z,7.90
2022-11-05T06:04:43.120Z,10.35
2022-11-05T06:07:09.854Z,8.05
2022-11-05T06:09:36.595Z,13.50
2022-11-05T06:12:03.581Z,10.85
2022-11-05T06:14:30.395Z,15.63
2022-11-05T06:16:58.543Z,13.63
2022-11-05T06:19:25.339Z,9.50
2022-11-05T06:21:52.108Z,10.55
2022-11-05T06:24:19.065Z,6.97
2022-11-05T06:26:46.097Z,10.13
2022-11-05T06:29:12.835Z,6.97
2022-11-05T06:31:39.924Z,8.02
2022-11-05T06:34:08.094Z,7.82
2022-11-05T06:36:34.810Z,8.48
2022-11-05T06:39:01.531Z,12.13
2022-11-05T06:41:28.353Z,10.30
2022-11-05T06:43:55.335Z,12.18
2022-11-05T06:46:22.137Z,6.32
2022-11-05T06:48:48.958Z,8.73
2022-11-05T06:51:17.211Z,10.07
2022-11-05T06:53:43.985Z,8.25
2022-11-05T06:56:10.774Z,7.93
2022-11-05T06:58:38.012Z,12.38
2022-11-05T07:01:08.615Z,9.02
2022-11-05T07:03:36.179Z,13.30
2022-11-05T07:06:04.485Z,9.85
2022-11-05T07:08:33.649Z,14.05
2022-11-05T07:11:00.917Z,8.27
2022-11-05T07:13:27.906Z,9.25
2022-11-05T07:15:55.207Z,6.97
2022-11-05T07:18:22.761Z,8.52
2022-11-05T07:20:49.743Z,8.48
2022-11-05T07:23:16.747Z,9.38
2022-11-05T07:25:44.918Z,6.88
2022-11-05T07:28:12.131Z,9.95
2022-11-05T07:30:38.974Z,6.47
2022-11-05T07:33:05.857Z,7.50
2022-11-05T07:35:32.648Z,13.60
2022-11-05T07:37:59.493Z,9.75
2022-11-05T07:40:28.116Z,17.00
2022-11-05T07:42:58.344Z,15.55
2022-11-05T07:45:26.049Z,7.15
2022-11-05T07:47:54.376Z,7.38
2022-11-05T07:50:22.943Z,7.32
2022-11-05T07:52:50.214Z,8.05
2022-11-05T07:55:17.776Z,14.45
2022-11-05T07:57:46.119Z,12.25
2022-11-05T08:00:17.041Z,12.60
2022-11-05T08:02:44.169Z,9.13
2022-11-05T08:05:11.134Z,8.20
2022-11-05T08:07:37.983Z,8.98
2022-11-05T08:10:05.426Z,11.55
2022-11-05T08:12:32.682Z,12.40
2022-11-05T08:14:59.501Z,10.90
2022-11-05T08:17:27.678Z,10.80
2022-11-05T08:19:54.425Z,9.60
2022-11-05T08:22:21.478Z,9.55
2022-11-05T08:24:48.258Z,10.95
2022-11-05T08:27:15.371Z,9.80
2022-11-05T08:29:42.078Z,8.63
2022-11-05T08:32:08.924Z,11.20
2022-11-05T08:34:37.297Z,9.18
2022-11-05T08:37:04.078Z,13.95
2022-11-05T08:39:30.815Z,13.10
2022-11-05T08:41:57.701Z,8.80
2022-11-05T08:44:24.634Z,10.43
2022-11-05T08:46:51.460Z,11.38
2022-11-05T08:49:18.322Z,9.60
2022-11-05T08:51:46.562Z,14.45
2022-11-05T08:54:13.590Z,8.23
2022-11-05T08:56:40.490Z,8.57
2022-11-05T08:59:07.806Z,11.07
2022-11-05T09:01:34.933Z,11.05
2022-11-05T09:04:02.192Z,14.32
2022-11-05T09:06:29.077Z,10.60
2022-11-05T09:08:57.293Z,10.05
2022-11-05T09:11:37.587Z,13.80
2022-11-05T09:14:11.026Z,10.57
2022-11-05T09:16:37.878Z,7.63
2022-11-05T09:19:04.806Z,11.32
2022-11-05T09:21:32.469Z,6.78
2022-11-05T09:24:00.908Z,9.77
2022-11-05T09:26:27.719Z,5.80
2022-11-05T09:28:54.474Z,4.85
2022-11-05T09:31:22.344Z,7.72
2022-11-05T09:33:49.182Z,6.30
2022-11-05T09:36:16.079Z,8.35
2022-11-05T09:38:42.949Z,5.60
2022-11-05T09:41:17.582Z,6.90
2022-11-05T09:43:48.736Z,5.25
2022-11-05T09:46:20.181Z,5.47
2022-11-05T09:48:49.730Z,5.18
2022-11-05T09:51:23.475Z,5.80
2022-11-05T09:53:51.478Z,4.00
2022-11-05T09:56:37.078Z,4.72
2022-11-05T09:59:12.298Z,6.68
2022-11-05T10:01:40.680Z,5.05
2022-11-05T10:04:12.817Z,47.90
2022-11-05T10:06:46.934Z,77.55
2022-11-05T10:09:19.657Z,5.95
2022-11-05T10:11:51.990Z,7.25
2022-11-05T10:14:23.433Z,7.88
2022-11-05T10:16:54.576Z,6.78
2022-11-05T10:19:25.645Z,5.70
2022-11-05T10:22:11.221Z,4.72
2022-11-05T10:24:42.050Z,4.20
2022-11-05T10:27:15.383Z,6.78
2022-11-05T10:29:43.571Z,7.28
2022-11-05T10:32:15.722Z,6.43
2022-11-05T10:34:43.076Z,27.80
2022-11-05T10:37:10.558Z,3.90
2022-11-05T10:39:37.532Z,6.72
2022-11-05T10:42:24.080Z,7.43
2022-11-05T10:44:56.720Z,6.43
2022-11-05T10:47:41.262Z,6.68
2022-11-05T10:50:11.338Z,7.13
2022-11-05T10:52:40.184Z,6.85
2022-11-05T10:55:15.730Z,5.63
2022-11-05T10:57:43.966Z,6.88
2022-11-05T11:00:29.127Z,7.78
2022-11-05T11:02:58.796Z,7.07
2022-11-05T11:05:30.069Z,6.72
2022-11-05T11:08:01.276Z,26.35
2022-11-05T11:10:30.680Z,34.85
2022-11-05T11:12:59.263Z,5.13
2022-11-05T11:15:28.791Z,13.80
2022-11-05T11:20:28.827Z,27.92
2022-11-05T11:23:05.405Z,10.77
2022-11-05T11:25:39.852Z,8.07
2022-11-05T11:28:18.317Z,6.38
2022-11-05T11:30:50.081Z,15.27
2022-11-05T11:33:21.828Z,8.30
2022-11-05T11:35:48.701Z,12.98
2022-11-05T11:38:17.327Z,9.27
2022-11-05T11:40:44.991Z,5.95
2022-11-05T11:43:26.257Z,8.80
2022-11-05T11:46:00.665Z,4.93
2022-11-05T11:48:34.039Z,10.82
2022-11-05T11:51:16.591Z,10.13
2022-11-05T11:53:43.515Z,8.48
2022-11-05T11:56:17.009Z,6.68
2022-11-05T11:58:47.969Z,6.25
2022-11-05T12:01:51.697Z,8.32
2022-11-05T12:04:28.630Z,6.68
2022-11-05T12:07:08.511Z,6.57
2022-11-05T12:09:53.790Z,17.73
2022-11-05T12:12:28.656Z,11.02
2022-11-05T12:15:01.962Z,8.77
2022-11-05T12:17:40.194Z,14.43
2022-11-05T12:20:23.023Z,9.13
2022-11-05T12:23:20.871Z,11.00
2022-11-05T12:25:59.012Z,8.63
2022-11-05T12:29:17.327Z,14.45
2022-11-05T12:31:53.499Z,6.22
2022-11-05T12:34:33.080Z,11.43
2022-11-05T12:37:11.778Z,8.10
2022-11-05T12:39:58.216Z,8.02
2022-11-05T12:42:38.166Z,6.90
2022-11-05T12:45:16.070Z,9.57
2022-11-05T12:47:57.042Z,8.38
2022-11-05T12:50:31.478Z,8.40
2022-11-05T12:53:42.657Z,6.60
2022-11-05T12:56:15.537Z,7.10
2022-11-05T12:58:45.889Z,6.70
2022-11-05T13:01:18.103Z,6.60
2022-11-05T13:03:52.322Z,9.52
2022-11-05T13:06:24.246Z,8.95
2022-11-05T13:08:59.865Z,9.13
2022-11-05T13:11:33.754Z,12.27
2022-11-05T13:14:08.860Z,9.07
2022-11-05T13:16:38.618Z,10.70
2022-11-05T13:19:15.990Z,6.88
2022-11-05T13:21:45.590Z,9.00
2022-11-05T13:24:16.689Z,7.53
2022-11-05T13:26:48.455Z,7.82
2022-11-05T13:29:21.157Z,7.47
2022-11-05T13:31:52.018Z,8.52
2022-11-05T13:34:20.234Z,8.15
2022-11-05T13:37:12.403Z,6.30
2022-11-05T13:39:45.769Z,7.35
2022-11-05T13:42:38.185Z,11.23
2022-11-05T13:45:31.642Z,7.30
2022-11-05T13:48:24.345Z,5.45
2022-11-05T13:51:17.881Z,4.55
2022-11-05T13:54:10.740Z,60.50
2022-11-05T13:56:54.283Z,9.23
2022-11-05T13:59:56.680Z,5.88
2022-11-05T14:02:26.258Z,17.92
2022-11-05T14:05:00.757Z,5.53
2022-11-05T14:07:32.370Z,91.88
2022-11-05T14:10:02.014Z,15.90
2022-11-05T14:15:03.322Z,45.92
2022-11-05T14:17:35.167Z,9.32
2022-11-05T14:20:23.209Z,44.95
2022-11-05T14:22:51.922Z,26.70
2022-11-05T14:25:53.265Z,73.95
2022-11-05T14:28:43.331Z,42.95
2022-11-05T14:31:40.968Z,46.28
2022-11-05T14:34:42.622Z,70.35
2022-11-05T14:37:25.101Z,71.50
2022-11-05T14:39:55.530Z,44.45
2022-11-05T14:42:25.812Z,43.95
2022-11-05T14:44:59.740Z,8.75
2022-11-05T14:47:30.083Z,6.78
2022-11-05T14:50:02.245Z,35.72
2022-11-05T14:52:29.581Z,14.85
2022-11-05T14:54:58.633Z,18.52
2022-11-05T14:58:14.053Z,24.33
2022-11-05T15:00:44.675Z,13.88
2022-11-05T15:03:32.660Z,6.57
2022-11-05T15:06:21.155Z,21.63
2022-11-05T15:09:13.426Z,7.43
2022-11-05T15:11:47.855Z,12.65
2022-11-05T15:14:21.906Z,5.95
2022-11-05T15:16:52.429Z,246.52
2022-11-05T15:19:23.947Z,164.23
2022-11-05T15:21:53.339Z,137.27
2022-11-05T15:24:20.763Z,164.88
2022-11-05T15:26:56.724Z,339.45
2022-11-05T15:29:28.528Z,219.13
2022-11-05T15:31:56.649Z,62.92
2022-11-05T15:34:25.679Z,10.00
2022-11-05T15:36:55.131Z,8.13
2022-11-05T15:39:30.498Z,7.80
2022-11-05T15:42:02.050Z,6.78
2022-11-05T15:44:31.721Z,10.00
2022-11-05T15:49:33.046Z,9.57
2022-11-05T15:51:59.970Z,9.10
2022-11-05T15:54:31.100Z,12.07
2022-11-05T15:57:00.192Z,9.52
2022-11-05T15:59:29.408Z,10.20
2022-11-05T16:02:01.186Z,9.05
2022-11-05T16:04:31.994Z,8.88
2022-11-05T16:07:01.629Z,11.15
2022-11-05T16:09:30.225Z,10.07
2022-11-05T16:12:24.251Z,17.13
2022-11-05T16:14:59.845Z,7.13
2022-11-05T16:17:30.143Z,10.32
2022-11-05T16:19:57.178Z,14.30
2022-11-05T16:22:25.066Z,11.35
2022-11-05T16:24:52.280Z,6.07
2022-11-05T16:27:22.142Z,11.02
2022-11-05T16:29:51.894Z,8.35
2022-11-05T16:32:28.552Z,9.85
2022-11-05T16:34:59.498Z,8.73
2022-11-05T16:37:27.989Z,10.25
2022-11-05T16:39:55.967Z,7.45
2022-11-05T16:42:40.448Z,11.30
2022-11-05T16:45:10.240Z,22.83
2022-11-05T16:47:37.107Z,11.88
2022-11-05T16:50:14.769Z,9.50
2022-11-05T16:52:41.664Z,10.25
2022-11-05T16:55:09.249Z,9.07
2022-11-05T16:57:36.360Z,9.63
2022-11-05T17:00:06.644Z,8.65
2022-11-05T17:02:33.719Z,13.45
2022-11-05T17:05:00.647Z,10.70
2022-11-05T17:07:27.533Z,17.55
2022-11-05T17:09:56.056Z,10.40
2022-11-05T17:12:22.853Z,11.00
2022-11-05T17:14:49.760Z,13.02
2022-11-05T17:17:17.983Z,14.85
2022-11-05T17:19:45.448Z,12.10
2022-11-05T17:22:12.259Z,15.40
2022-11-05T17:24:39.136Z,9.55
2022-11-05T17:27:06.050Z,12.30
2022-11-05T17:29:32.960Z,15.55
2022-11-05T17:31:59.766Z,13.10
2022-11-05T17:34:28.201Z,10.40
2022-11-05T17:36:55.063Z,14.07
2022-11-05T17:39:24.840Z,14.43
2022-11-05T17:41:54.824Z,14.98
2022-11-05T17:44:21.658Z,15.77
2022-11-05T17:46:48.706Z,15.45
2022-11-05T17:49:15.559Z,11.98
2022-11-05T17:51:43.721Z,14.32
2022-11-05T17:54:10.569Z,13.82
2022-11-05T17:56:44.464Z,14.88
2022-11-05T17:59:11.765Z,17.40
2022-11-05T18:01:43.465Z,21.48
2022-11-05T18:04:10.813Z,14.00
2022-11-05T18:06:38.585Z,13.55
2022-11-05T18:09:08.831Z,15.60
2022-11-05T18:11:36.787Z,13.13
2022-11-05T18:14:04.157Z,17.98
2022-11-05T18:16:31.618Z,15.95
2022-11-05T18:18:58.470Z,18.70
2022-11-05T18:21:25.363Z,14.25
2022-11-05T18:23:55.071Z,12.98
2022-11-05T18:26:23.409Z,14.10
2022-11-05T18:28:50.278Z,12.00
2022-11-05T18:31:20.658Z,16.58
2022-11-05T18:33:48.749Z,17.25
2022-11-05T18:36:18.822Z,14.48
2022-11-05T18:38:45.635Z,19.15
2022-11-05T18:41:12.421Z,12.70
2022-11-05T18:43:40.956Z,10.55
2022-11-05T18:46:08.050Z,12.77
2022-11-05T18:48:35.518Z,9.77
2022-11-05T18:51:08.173Z,13.27
2022-11-05T18:53:35.141Z,14.18
2022-11-05T18:56:07.269Z,14.10
2022-11-05T18:58:34.164Z,16.27
2022-11-05T19:01:06.498Z,17.20
2022-11-05T19:03:34.189Z,13.77
2022-11-05T19:06:03.922Z,17.30
2022-11-05T19:08:31.323Z,18.27
2022-11-05T19:10:58.790Z,11.05
2022-11-05T19:13:25.750Z,18.23
2022-11-05T19:15:52.848Z,16.25
2022-11-05T19:18:21.975Z,15.13
2022-11-05T19:20:48.887Z,17.23
2022-11-05T19:23:15.703Z,13.77
2022-11-05T19:25:42.510Z,12.77
2022-11-05T19:28:09.493Z,15.07
2022-11-05T19:30:38.100Z,12.63
2022-11-05T19:33:04.930Z,13.02
2022-11-05T19:35:38.354Z,20.63
2022-11-05T19:38:07.786Z,14.57
2022-11-05T19:40:36.648Z,12.30
2022-11-05T19:43:03.598Z,29.88
2022-11-05T19:45:44.116Z,10.38
2022-11-05T19:48:14.820Z,23.60
2022-11-05T19:50:47.310Z,12.65
2022-11-05T19:53:14.132Z,10.15
2022-11-05T19:55:45.076Z,11.18
2022-11-05T19:58:12.347Z,12.35
2022-11-05T20:00:39.420Z,21.90
2022-11-05T20:03:06.246Z,18.13
2022-11-05T20:05:33.694Z,16.45
2022-11-05T20:08:01.851Z,13.95
2022-11-05T20:10:28.633Z,15.55
2022-11-05T20:12:55.458Z,14.35
2022-11-05T20:15:22.313Z,13.68
2022-11-05T20:17:50.350Z,13.45
2022-11-05T20:20:17.846Z,14.30
2022-11-05T20:22:45.061Z,14.93
2022-11-05T20:25:13.400Z,11.05
2022-11-05T20:27:40.306Z,13.32
2022-11-05T20:30:08.656Z,11.30
2022-11-05T20:32:35.447Z,13.30
2022-11-05T20:35:02.397Z,14.18
2022-11-05T20:37:29.307Z,16.75
2022-11-05T20:39:56.138Z,17.15
2022-11-05T20:42:24.563Z,23.67
2022-11-05T20:44:51.328Z,9.05
2022-11-05T20:47:18.262Z,10.65
2022-11-05T20:49:45.178Z,10.43
2022-11-05T20:52:12.329Z,8.88
2022-11-05T20:54:39.131Z,13.75
2022-11-05T20:57:06.595Z,11.45
2022-11-05T20:59:34.804Z,9.05
2022-11-05T21:02:01.807Z,18.98
2022-11-05T21:04:28.803Z,11.35
2022-11-05T21:06:55.610Z,8.95
2022-11-05T21:09:22.596Z,10.80
2022-11-05T21:12:08.003Z,8.07
2022-11-05T21:14:36.264Z,9.25
2022-11-05T21:17:03.039Z,10.02
2022-11-05T21:19:31.254Z,11.05
2022-11-05T21:21:58.283Z,9.52
2022-11-05T21:24:25.113Z,9.25
2022-11-05T21:26:52.107Z,9.82
2022-11-05T21:29:19.307Z,17.20
2022-11-05T21:31:47.797Z,10.85
2022-11-05T21:34:16.070Z,11.23
2022-11-05T21:36:42.951Z,15.00
2022-11-05T21:39:13.415Z,8.88
2022-11-05T21:41:40.954Z,10.88
2022-11-05T21:44:07.973Z,10.32
2022-11-05T21:46:34.740Z,13.35
2022-11-05T21:49:02.993Z,8.98
2022-11-05T21:51:48.322Z,15.60
2022-11-05T21:54:35.521Z,8.38
2022-11-05T21:57:21.392Z,8.60
2022-11-05T21:59:48.443Z,8.77
2022-11-05T22:02:20.253Z,14.13
2022-11-05T22:04:51.053Z,21.38
2022-11-05T22:07:19.983Z,10.73
2022-11-05T22:09:47.422Z,8.90
2022-11-05T22:12:15.039Z,8.68
2022-11-05T22:14:42.394Z,10.75
2022-11-05T22:17:10.146Z,13.18
2022-11-05T22:19:37.101Z,13.18
2022-11-05T22:22:06.686Z,13.65
2022-11-05T22:27:02.075Z,18.50
2022-11-05T22:29:29.078Z,15.07
2022-11-05T22:31:57.122Z,15.27
2022-11-05T22:34:24.952Z,12.65
2022-11-05T22:36:52.230Z,10.05
2022-11-05T22:39:23.753Z,13.75
2022-11-05T22:41:54.331Z,10.70
2022-11-05T22:44:21.376Z,9.32
2022-11-05T22:46:48.207Z,16.52
2022-11-05T22:49:15.369Z,15.27
2022-11-05T22:51:42.480Z,13.00
2022-11-05T22:54:09.395Z,10.98
2022-11-05T22:56:40.242Z,11.20
2022-11-05T22:59:10.528Z,14.82
2022-11-05T23:01:37.540Z,9.35
2022-11-05T23:04:04.422Z,20.45
2022-11-05T23:06:51.751Z,11.23
2022-11-05T23:12:09.739Z,18.65
2022-11-05T23:14:37.021Z,13.68
2022-11-05T23:17:22.798Z,9.75
2022-11-05T23:20:08.145Z,18.00
2022-11-05T23:22:53.342Z,15.32
2022-11-05T23:25:21.906Z,13.02
2022-11-05T23:27:52.313Z,11.63
2022-11-05T23:30:21.090Z,24.00
2022-11-05T23:32:48.560Z,11.77
2022-11-05T23:35:15.800Z,11.85
2022-11-05T23:38:01.349Z,16.98
2022-11-05T23:40:30.640Z,16.20
2022-11-05T23:43:17.493Z,11.27
2022-11-05T23:46:03.441Z,19.27
2022-11-05T23:48:35.770Z,24.00
2022-11-05T23:51:04.966Z,9.23
2022-11-05T23:53:34.860Z,20.25
2022-11-05T23:56:05.186Z,10.63
2022-11-05T23:58:33.933Z,16.67
